Time;durP1;ratioP1;P1;durP2;ratioP2;P2;SDS_P1;SDS_P2;PMS_P1;PMS_P2;Temp;Humidity;BMP_temperature;BMP_pressure;BME280_temperature;BME280_humidity;BME280_pressure;Samples;Min_cycle;Max_cycle;Signal;HPM_P1;HPM_P2
2022/03/21 00:00:48;;;;;;;19.60;16.65;;;;;;;;;;4952913;29;20474;-64
2022/03/21 00:03:15;;;;;;;20.08;15.57;;;;;;;;;;4942249;29;20033;-64
2022/03/21 00:05:42;;;;;;;20.20;15.88;;;;;;;;;;4952628;28;20028;-66
2022/03/21 00:08:11;;;;;;;21.52;14.98;;;;;;;;;;4955599;29;20023;-64
2022/03/21 00:10:38;;;;;;;20.77;16.50;;;;;;;;;;4953950;29;20031;-64
2022/03/21 00:13:05;;;;;;;19.13;15.30;;;;;;;;;;4954043;28;20023;-64
2022/03/21 00:15:32;;;;;;;18.50;15.75;;;;;;;;;;4955797;29;20039;-68
2022/03/21 00:17:58;;;;;;;21.42;16.25;;;;;;;;;;4952561;28;20031;-63
2022/03/21 00:20:26;;;;;;;21.10;16.90;;;;;;;;;;4955751;29;20035;-68
2022/03/21 00:22:53;;;;;;;22.10;17.08;;;;;;;;;;4952064;29;20038;-64
2022/03/21 00:25:19;;;;;;;22.60;16.48;;;;;;;;;;4950815;28;20098;-64
2022/03/21 00:27:45;;;;;;;19.90;15.25;;;;;;;;;;4945589;29;20142;-65
2022/03/21 00:30:11;;;;;;;19.55;15.15;;;;;;;;;;4952781;29;20399;-64
2022/03/21 00:32:38;;;;;;;18.83;15.60;;;;;;;;;;4943374;29;20118;-64
2022/03/21 00:35:07;;;;;;;18.30;15.10;;;;;;;;;;4955529;29;20109;-65
2022/03/21 00:37:34;;;;;;;21.33;15.95;;;;;;;;;;4963911;28;20042;-63
2022/03/21 00:40:00;;;;;;;22.70;16.52;;;;;;;;;;4952121;29;20387;-64
2022/03/21 00:42:26;;;;;;;20.02;16.42;;;;;;;;;;4938346;29;20082;-66
2022/03/21 00:44:56;;;;;;;21.77;17.20;;;;;;;;;;4948555;29;20038;-64
2022/03/21 00:47:22;;;;;;;23.35;17.38;;;;;;;;;;4955168;28;20041;-63
2022/03/21 00:49:48;;;;;;;19.60;15.70;;;;;;;;;;4954271;29;20028;-67
2022/03/21 00:52:14;;;;;;;18.55;15.43;;;;;;;;;;4954829;29;20031;-66
2022/03/21 00:54:40;;;;;;;16.98;14.95;;;;;;;;;;4946353;29;20039;-65
2022/03/21 00:57:06;;;;;;;18.45;15.45;;;;;;;;;;4948436;29;20043;-64
2022/03/21 00:59:32;;;;;;;20.08;15.50;;;;;;;;;;4953963;28;20093;-64
2022/03/21 01:01:58;;;;;;;19.25;15.82;;;;;;;;;;4954452;28;20026;-64
2022/03/21 01:04:24;;;;;;;20.38;16.35;;;;;;;;;;4954332;29;20032;-64
2022/03/21 01:06:50;;;;;;;20.88;16.08;;;;;;;;;;4946736;29;20035;-64
2022/03/21 01:09:17;;;;;;;21.35;16.65;;;;;;;;;;4950696;29;20488;-65
2022/03/21 01:11:43;;;;;;;19.27;15.73;;;;;;;;;;4954788;28;20027;-64
2022/03/21 01:14:10;;;;;;;20.92;15.88;;;;;;;;;;4953218;28;20035;-64
2022/03/21 01:16:36;;;;;;;20.75;15.10;;;;;;;;;;4942287;29;20070;-66
2022/03/21 01:19:02;;;;;;;18.83;15.30;;;;;;;;;;4934544;29;20034;-66
2022/03/21 01:21:29;;;;;;;17.92;14.70;;;;;;;;;;4945840;29;20038;-64
2022/03/21 01:23:55;;;;;;;19.33;15.65;;;;;;;;;;4948800;29;20110;-65
2022/03/21 01:26:21;;;;;;;18.48;15.70;;;;;;;;;;4938598;29;20118;-64
2022/03/21 01:28:47;;;;;;;21.45;16.17;;;;;;;;;;4945347;29;20055;-63
2022/03/21 01:31:13;;;;;;;24.33;16.85;;;;;;;;;;4954074;29;20035;-65
2022/03/21 01:33:41;;;;;;;20.77;16.52;;;;;;;;;;4954850;28;20023;-64
2022/03/21 01:36:07;;;;;;;17.90;15.05;;;;;;;;;;4958200;28;20046;-64
2022/03/21 01:38:33;;;;;;;18.35;14.45;;;;;;;;;;4974114;28;20103;-65
2022/03/21 01:40:59;;;;;;;19.33;15.65;;;;;;;;;;4961426;28;20110;-64
2022/03/21 01:43:25;;;;;;;19.73;15.15;;;;;;;;;;4954872;28;20059;-66
2022/03/21 01:45:51;;;;;;;20.02;15.68;;;;;;;;;;4954980;29;20027;-64
2022/03/21 01:48:17;;;;;;;21.70;15.55;;;;;;;;;;4953210;29;20035;-64
2022/03/21 01:50:43;;;;;;;21.38;16.52;;;;;;;;;;4949728;29;20031;-67
2022/03/21 01:55:56;;;;;;;20.67;16.02;;;;;;;;;;4945521;29;20050;-64
2022/03/21 01:58:22;;;;;;;21.27;16.13;;;;;;;;;;4943428;29;20027;-66
2022/03/21 02:00:48;;;;;;;26.40;16.00;;;;;;;;;;4944761;28;20071;-65
2022/03/21 02:03:14;;;;;;;17.23;14.68;;;;;;;;;;4949088;29;20110;-64
2022/03/21 02:05:40;;;;;;;22.42;15.85;;;;;;;;;;4949174;29;20037;-68
2022/03/21 02:08:06;;;;;;;20.48;15.73;;;;;;;;;;4954310;29;20027;-64
2022/03/21 02:10:32;;;;;;;21.10;14.88;;;;;;;;;;4954157;29;20035;-66
2022/03/21 02:12:58;;;;;;;21.23;16.08;;;;;;;;;;4954186;29;20063;-65
2022/03/21 02:15:25;;;;;;;22.77;16.40;;;;;;;;;;4953736;29;20141;-64
2022/03/21 02:17:59;;;;;;;22.23;14.85;;;;;;;;;;4934854;29;20078;-64
2022/03/21 02:20:26;;;;;;;24.40;16.27;;;;;;;;;;4934961;29;20038;-64
2022/03/21 02:23:08;;;;;;;18.95;15.23;;;;;;;;;;4946303;29;20031;-65
2022/03/21 02:25:34;;;;;;;20.90;15.48;;;;;;;;;;4937522;29;20059;-65
2022/03/21 02:28:10;;;;;;;18.58;14.55;;;;;;;;;;4941173;29;20075;-64
2022/03/21 02:30:39;;;;;;;23.00;16.00;;;;;;;;;;4947491;28;20487;-65
2022/03/21 02:33:06;;;;;;;19.65;16.23;;;;;;;;;;4940292;29;20105;-64
2022/03/21 02:35:33;;;;;;;19.48;15.65;;;;;;;;;;4941896;29;20050;-65
2022/03/21 02:38:00;;;;;;;20.10;15.80;;;;;;;;;;4953662;28;20367;-64
2022/03/21 02:40:26;;;;;;;21.15;15.25;;;;;;;;;;4949251;28;20110;-66
2022/03/21 02:42:52;;;;;;;20.85;15.85;;;;;;;;;;4952711;29;20103;-65
2022/03/21 02:45:18;;;;;;;19.13;15.60;;;;;;;;;;4953549;29;20051;-64
2022/03/21 02:47:44;;;;;;;19.83;16.30;;;;;;;;;;4951077;29;20424;-64
2022/03/21 02:50:13;;;;;;;24.63;16.73;;;;;;;;;;4953575;29;20051;-63
2022/03/21 02:52:39;;;;;;;21.25;17.15;;;;;;;;;;4952630;29;20052;-63
2022/03/21 02:55:05;;;;;;;21.77;17.50;;;;;;;;;;4944398;29;20047;-66
2022/03/21 02:57:32;;;;;;;20.23;15.50;;;;;;;;;;4935630;29;20103;-63
2022/03/21 02:59:59;;;;;;;18.88;14.88;;;;;;;;;;4953484;28;20035;-66
2022/03/21 03:02:25;;;;;;;19.08;15.68;;;;;;;;;;4952380;28;20514;-64
2022/03/21 03:04:53;;;;;;;21.00;15.98;;;;;;;;;;4952491;29;20020;-66
2022/03/21 03:07:20;;;;;;;19.65;15.98;;;;;;;;;;4952514;28;20042;-68
2022/03/21 03:09:46;;;;;;;20.88;15.95;;;;;;;;;;4950390;29;20062;-63
2022/03/21 03:12:12;;;;;;;20.65;15.98;;;;;;;;;;4952655;28;20074;-63
2022/03/21 03:14:38;;;;;;;23.02;16.42;;;;;;;;;;4937406;29;20024;-64
2022/03/21 03:17:04;;;;;;;21.05;14.93;;;;;;;;;;4940119;29;20448;-64
2022/03/21 03:19:30;;;;;;;20.77;15.35;;;;;;;;;;4946976;29;20095;-65
2022/03/21 03:21:56;;;;;;;21.75;15.63;;;;;;;;;;4951988;28;20034;-65
2022/03/21 03:24:24;;;;;;;18.98;16.05;;;;;;;;;;4938902;29;20027;-64
2022/03/21 03:26:50;;;;;;;20.92;16.38;;;;;;;;;;4933965;29;20036;-65
2022/03/21 03:29:16;;;;;;;21.27;16.15;;;;;;;;;;4936592;29;20034;-63
2022/03/21 03:31:42;;;;;;;21.98;17.00;;;;;;;;;;4947384;29;20057;-63
2022/03/21 03:34:09;;;;;;;17.92;15.20;;;;;;;;;;4953216;28;20530;-65
2022/03/21 03:36:35;;;;;;;19.40;14.75;;;;;;;;;;4960868;28;20421;-63
2022/03/21 03:39:02;;;;;;;20.77;16.30;;;;;;;;;;4958348;28;20027;-63
2022/03/21 03:41:28;;;;;;;22.80;17.15;;;;;;;;;;4954081;28;20035;-66
2022/03/21 03:43:54;;;;;;;23.83;17.15;;;;;;;;;;4957076;29;20130;-65
2022/03/21 03:46:21;;;;;;;23.10;16.65;;;;;;;;;;4941260;28;20031;-65
2022/03/21 03:48:47;;;;;;;22.48;15.93;;;;;;;;;;4950498;29;20139;-63
2022/03/21 03:51:13;;;;;;;21.70;15.48;;;;;;;;;;4954486;29;20495;-66
2022/03/21 03:53:40;;;;;;;18.77;15.20;;;;;;;;;;4954371;29;20031;-64
2022/03/21 03:56:09;;;;;;;21.88;15.85;;;;;;;;;;4948808;29;20158;-63
2022/03/21 03:58:35;;;;;;;19.48;16.58;;;;;;;;;;4946332;29;20110;-63
2022/03/21 04:01:04;;;;;;;20.50;16.13;;;;;;;;;;4937375;29;20031;-67
2022/03/21 04:03:45;;;;;;;19.52;15.77;;;;;;;;;;4945783;29;20027;-66
2022/03/21 04:06:21;;;;;;;23.58;16.48;;;;;;;;;;4955354;29;20039;-64
2022/03/21 04:08:48;;;;;;;21.52;16.35;;;;;;;;;;4956341;29;20120;-64
2022/03/21 04:11:14;;;;;;;17.20;14.25;;;;;;;;;;4942664;29;20031;-63
2022/03/21 04:13:40;;;;;;;21.42;16.67;;;;;;;;;;4937182;29;20028;-64
2022/03/21 04:16:06;;;;;;;20.25;16.55;;;;;;;;;;4945831;29;20074;-63
2022/03/21 04:18:33;;;;;;;21.27;17.58;;;;;;;;;;4954673;29;20430;-64
2022/03/21 04:20:59;;;;;;;19.67;16.15;;;;;;;;;;4944945;29;20036;-63
2022/03/21 04:23:25;;;;;;;22.15;17.42;;;;;;;;;;4942894;29;20024;-63
2022/03/21 04:25:51;;;;;;;19.73;16.13;;;;;;;;;;4952478;29;20023;-64
2022/03/21 04:28:18;;;;;;;17.05;14.23;;;;;;;;;;4948299;28;20063;-64
2022/03/21 04:30:44;;;;;;;18.98;16.05;;;;;;;;;;4943165;29;20035;-64
2022/03/21 04:33:12;;;;;;;22.98;17.88;;;;;;;;;;4953767;29;20023;-63
2022/03/21 04:35:38;;;;;;;23.40;17.33;;;;;;;;;;4940812;28;20084;-65
2022/03/21 04:38:13;;;;;;;22.13;17.08;;;;;;;;;;4962215;28;20034;-63
2022/03/21 04:40:39;;;;;;;27.25;18.55;;;;;;;;;;4955695;28;20027;-63
2022/03/21 04:43:05;;;;;;;24.85;17.67;;;;;;;;;;4939075;29;20500;-65
2022/03/21 04:45:31;;;;;;;20.75;14.77;;;;;;;;;;4943194;29;20039;-63
2022/03/21 04:47:57;;;;;;;24.42;17.27;;;;;;;;;;4941192;29;20522;-64
2022/03/21 04:50:23;;;;;;;29.65;18.50;;;;;;;;;;4941004;29;20027;-63
2022/03/21 04:52:49;;;;;;;24.60;17.58;;;;;;;;;;4954397;28;20045;-65
2022/03/21 04:55:15;;;;;;;28.02;18.45;;;;;;;;;;4954026;29;20511;-63
2022/03/21 04:57:41;;;;;;;29.10;18.83;;;;;;;;;;4953454;28;20027;-63
2022/03/21 05:00:07;;;;;;;26.98;17.35;;;;;;;;;;4954837;29;20034;-63
2022/03/21 05:02:33;;;;;;;30.33;19.20;;;;;;;;;;4955247;29;20071;-64
2022/03/21 05:04:59;;;;;;;25.73;18.60;;;;;;;;;;4945100;29;20531;-64
2022/03/21 05:07:25;;;;;;;24.40;18.23;;;;;;;;;;4952936;29;20062;-63
2022/03/21 05:09:52;;;;;;;27.02;18.70;;;;;;;;;;4955215;29;20028;-63
2022/03/21 05:12:18;;;;;;;23.63;17.75;;;;;;;;;;4955156;29;20688;-63
2022/03/21 05:14:44;;;;;;;29.48;19.30;;;;;;;;;;4948735;28;20079;-63
2022/03/21 05:17:11;;;;;;;23.90;19.00;;;;;;;;;;4939341;29;20458;-62
2022/03/21 05:19:37;;;;;;;26.70;19.02;;;;;;;;;;4949934;28;20023;-63
2022/03/21 05:22:04;;;;;;;29.58;19.88;;;;;;;;;;4942670;29;20100;-65
2022/03/21 05:32:44;;;;;;;25.50;18.17;;;;;;;;;;4942531;29;20031;-63
2022/03/21 05:37:55;;;;;;;22.08;16.40;;;;;;;;;;4964774;28;20447;-64
2022/03/21 05:40:35;;;;;;;21.90;16.73;;;;;;;;;;4954464;29;20525;-65
2022/03/21 05:43:01;;;;;;;19.42;16.08;;;;;;;;;;4951692;28;20491;-66
2022/03/21 05:45:28;;;;;;;20.52;15.95;;;;;;;;;;4948485;29;20110;-63
2022/03/21 05:50:39;;;;;;;22.65;14.95;;;;;;;;;;4943163;29;20534;-64
2022/03/21 05:53:06;;;;;;;20.88;14.50;;;;;;;;;;4939396;29;20032;-65
2022/03/21 05:55:32;;;;;;;18.08;14.75;;;;;;;;;;4940486;28;20032;-64
2022/03/21 05:57:59;;;;;;;21.48;14.80;;;;;;;;;;4944326;29;20036;-64
2022/03/21 06:00:26;;;;;;;20.83;14.90;;;;;;;;;;4949852;28;20039;-66
2022/03/21 06:02:52;;;;;;;20.02;15.57;;;;;;;;;;4941929;28;20078;-71
2022/03/21 06:05:19;;;;;;;21.05;14.65;;;;;;;;;;4938997;29;20091;-72
2022/03/21 06:07:46;;;;;;;17.25;14.48;;;;;;;;;;4946603;28;20042;-64
2022/03/21 06:10:12;;;;;;;18.50;14.70;;;;;;;;;;4945399;29;20035;-65
2022/03/21 06:12:38;;;;;;;23.27;15.77;;;;;;;;;;4942500;29;20070;-64
2022/03/21 06:15:04;;;;;;;22.05;15.88;;;;;;;;;;4945766;29;20067;-64
2022/03/21 06:17:35;;;;;;;20.13;15.95;;;;;;;;;;4939996;29;20070;-64
2022/03/21 06:20:01;;;;;;;19.05;14.65;;;;;;;;;;4947581;28;20043;-71
2022/03/21 06:22:27;;;;;;;28.30;19.38;;;;;;;;;;4947281;28;20491;-68
2022/03/21 06:24:53;;;;;;;65.05;20.48;;;;;;;;;;4946312;29;20038;-70
2022/03/21 06:27:19;;;;;;;56.63;20.30;;;;;;;;;;4941168;29;20538;-72
2022/03/21 06:29:45;;;;;;;32.60;21.42;;;;;;;;;;4948059;28;20039;-70
2022/03/21 06:32:11;;;;;;;37.60;21.30;;;;;;;;;;4952022;29;20129;-71
2022/03/21 06:34:37;;;;;;;31.70;21.10;;;;;;;;;;4946597;28;20475;-65
2022/03/21 06:37:05;;;;;;;44.90;22.83;;;;;;;;;;4941606;28;20054;-70
2022/03/21 06:39:31;;;;;;;35.00;22.13;;;;;;;;;;4942580;29;20019;-71
2022/03/21 06:41:57;;;;;;;42.25;22.08;;;;;;;;;;4942158;29;20371;-70
2022/03/21 06:44:23;;;;;;;31.50;23.00;;;;;;;;;;4948405;29;20022;-71
2022/03/21 06:46:49;;;;;;;32.58;23.10;;;;;;;;;;4947049;29;20385;-71
2022/03/21 06:49:15;;;;;;;39.13;23.35;;;;;;;;;;4954099;29;20054;-71
2022/03/21 06:51:41;;;;;;;31.85;22.88;;;;;;;;;;4937736;29;20082;-73
2022/03/21 06:54:07;;;;;;;34.85;20.70;;;;;;;;;;4942821;29;20040;-70
2022/03/21 06:56:33;;;;;;;42.70;22.23;;;;;;;;;;4942327;29;20101;-71
2022/03/21 06:58:59;;;;;;;40.38;23.20;;;;;;;;;;4953491;29;20434;-70
2022/03/21 07:01:26;;;;;;;39.50;22.73;;;;;;;;;;4949539;29;20040;-72
2022/03/21 07:03:52;;;;;;;35.45;22.33;;;;;;;;;;4948260;29;20456;-70
2022/03/21 07:06:19;;;;;;;37.15;22.77;;;;;;;;;;4942664;29;20020;-71
2022/03/21 07:08:51;;;;;;;33.15;22.90;;;;;;;;;;4953409;28;20038;-71
2022/03/21 07:11:18;;;;;;;33.00;22.55;;;;;;;;;;4950685;28;20027;-69
2022/03/21 07:13:44;;;;;;;40.05;22.10;;;;;;;;;;4934287;29;20476;-71
2022/03/21 07:16:15;;;;;;;30.92;23.48;;;;;;;;;;4946335;28;20126;-70
2022/03/21 07:18:42;;;;;;;35.72;22.42;;;;;;;;;;4949479;28;20114;-71
2022/03/21 07:21:08;;;;;;;36.55;22.92;;;;;;;;;;4957374;29;20120;-71
2022/03/21 07:23:34;;;;;;;31.25;22.73;;;;;;;;;;4953483;29;20141;-71
2022/03/21 07:26:00;;;;;;;35.05;22.42;;;;;;;;;;4948041;29;20144;-71
2022/03/21 07:28:26;;;;;;;33.50;23.27;;;;;;;;;;4946929;29;20031;-72
2022/03/21 07:30:52;;;;;;;33.05;22.83;;;;;;;;;;4944530;29;20040;-73
2022/03/21 07:33:19;;;;;;;32.20;23.55;;;;;;;;;;4947909;29;20027;-73
2022/03/21 07:35:45;;;;;;;35.20;23.33;;;;;;;;;;4958127;28;20046;-74
2022/03/21 07:38:11;;;;;;;32.15;22.80;;;;;;;;;;4959235;28;20050;-72
2022/03/21 07:40:37;;;;;;;32.33;23.42;;;;;;;;;;4947774;28;20373;-75
2022/03/21 07:43:03;;;;;;;29.00;22.38;;;;;;;;;;4938326;29;20027;-72
2022/03/21 07:48:13;;;;;;;32.35;24.25;;;;;;;;;;4957414;29;20562;-73
2022/03/21 07:50:41;;;;;;;30.90;22.60;;;;;;;;;;4955299;28;20023;-76
2022/03/21 07:53:07;;;;;;;32.00;23.23;;;;;;;;;;4943938;29;20027;-75
2022/03/21 07:55:35;;;;;;;37.05;24.35;;;;;;;;;;4951041;29;20031;-72
2022/03/21 07:58:01;;;;;;;32.30;22.52;;;;;;;;;;4952270;29;20027;-73
2022/03/21 08:00:28;;;;;;;32.63;24.73;;;;;;;;;;4947676;29;20067;-64
2022/03/21 08:02:54;;;;;;;33.20;24.40;;;;;;;;;;4945627;28;20427;-72
2022/03/21 08:05:20;;;;;;;34.42;25.38;;;;;;;;;;4947416;28;20023;-73
2022/03/21 08:07:46;;;;;;;33.15;25.25;;;;;;;;;;4945780;29;20035;-72
2022/03/21 08:10:12;;;;;;;37.83;25.88;;;;;;;;;;4946822;29;20047;-74
2022/03/21 08:12:42;;;;;;;35.45;26.75;;;;;;;;;;4945414;29;20062;-75
2022/03/21 08:15:08;;;;;;;39.38;26.25;;;;;;;;;;4942620;29;20047;-71
2022/03/21 08:17:46;;;;;;;37.22;27.05;;;;;;;;;;4948083;29;20736;-73
2022/03/21 08:20:13;;;;;;;34.08;26.98;;;;;;;;;;4942437;29;20030;-74
2022/03/21 08:22:39;;;;;;;39.53;28.02;;;;;;;;;;4940283;29;20038;-73
2022/03/21 08:25:07;;;;;;;36.40;26.98;;;;;;;;;;4944046;29;20091;-72
2022/03/21 08:27:33;;;;;;;41.20;27.15;;;;;;;;;;4947048;29;20020;-71
2022/03/21 08:29:59;;;;;;;38.25;27.83;;;;;;;;;;4943925;28;20403;-72
2022/03/21 08:32:25;;;;;;;41.35;29.38;;;;;;;;;;4947541;29;20452;-67
2022/03/21 08:34:51;;;;;;;39.05;30.25;;;;;;;;;;4946406;29;20390;-72
2022/03/21 08:37:18;;;;;;;35.53;28.10;;;;;;;;;;4942979;29;20044;-72
2022/03/21 08:39:44;;;;;;;36.63;28.08;;;;;;;;;;4949635;28;20443;-72
2022/03/21 08:42:10;;;;;;;38.67;28.83;;;;;;;;;;4953543;29;20155;-71
2022/03/21 08:44:37;;;;;;;40.28;29.77;;;;;;;;;;4945465;29;20039;-62
2022/03/21 08:47:03;;;;;;;42.42;30.17;;;;;;;;;;4949432;28;20083;-68
2022/03/21 08:49:33;;;;;;;38.92;28.58;;;;;;;;;;4955572;28;20027;-70
2022/03/21 08:52:01;;;;;;;37.33;28.42;;;;;;;;;;4948525;29;20459;-71
2022/03/21 08:54:27;;;;;;;39.08;28.90;;;;;;;;;;4948699;28;20027;-72
2022/03/21 08:56:53;;;;;;;42.60;29.40;;;;;;;;;;4943970;29;20028;-72
2022/03/21 08:59:19;;;;;;;42.65;28.27;;;;;;;;;;4942190;29;20035;-71
2022/03/21 09:01:45;;;;;;;43.60;29.70;;;;;;;;;;4948542;29;20448;-69
2022/03/21 09:04:12;;;;;;;42.38;29.85;;;;;;;;;;4951409;29;20463;-69
2022/03/21 09:06:38;;;;;;;42.13;28.42;;;;;;;;;;4944935;29;20058;-71
2022/03/21 09:09:04;;;;;;;39.72;28.48;;;;;;;;;;4947799;29;20451;-70
2022/03/21 09:11:30;;;;;;;41.35;28.88;;;;;;;;;;4941982;29;20428;-71
2022/03/21 09:13:56;;;;;;;37.33;27.77;;;;;;;;;;4949328;29;20094;-71
2022/03/21 09:16:22;;;;;;;38.20;27.52;;;;;;;;;;4944219;29;20087;-71
2022/03/21 09:18:48;;;;;;;38.10;28.13;;;;;;;;;;4941034;29;20102;-77
2022/03/21 09:21:14;;;;;;;38.72;27.45;;;;;;;;;;4943642;29;20412;-69
2022/03/21 09:23:40;;;;;;;37.05;26.77;;;;;;;;;;4945218;28;20023;-71
2022/03/21 09:26:10;;;;;;;38.08;26.70;;;;;;;;;;4950172;28;20078;-69
2022/03/21 09:28:36;;;;;;;38.47;27.13;;;;;;;;;;4946166;28;20023;-63
2022/03/21 09:31:06;;;;;;;36.65;26.98;;;;;;;;;;4936645;29;20034;-68
2022/03/21 09:33:32;;;;;;;34.97;25.45;;;;;;;;;;4935578;29;20028;-72
2022/03/21 09:35:58;;;;;;;46.75;24.52;;;;;;;;;;4939173;29;20043;-71
2022/03/21 09:38:24;;;;;;;33.80;25.48;;;;;;;;;;4954439;28;20134;-71
2022/03/21 09:40:50;;;;;;;36.63;24.48;;;;;;;;;;4946049;28;20671;-69
2022/03/21 09:43:16;;;;;;;30.38;23.80;;;;;;;;;;4950538;29;20098;-71
2022/03/21 09:45:42;;;;;;;34.15;24.80;;;;;;;;;;4942586;29;20372;-69
2022/03/21 09:48:09;;;;;;;37.28;25.98;;;;;;;;;;4950112;28;20066;-70
2022/03/21 09:50:36;;;;;;;34.38;23.92;;;;;;;;;;4961113;28;20046;-69
2022/03/21 09:53:04;;;;;;;34.83;24.27;;;;;;;;;;4957370;28;20448;-70
2022/03/21 09:55:30;;;;;;;36.17;24.98;;;;;;;;;;4949159;29;20039;-68
2022/03/21 09:57:56;;;;;;;35.65;25.65;;;;;;;;;;4954279;29;20031;-69
2022/03/21 10:00:25;;;;;;;37.05;25.83;;;;;;;;;;4947315;29;20475;-68
2022/03/21 10:02:51;;;;;;;37.40;26.35;;;;;;;;;;4945854;28;20027;-70
2022/03/21 10:05:30;;;;;;;34.13;24.20;;;;;;;;;;4956303;28;20410;-69
2022/03/21 10:08:12;;;;;;;31.38;24.02;;;;;;;;;;4945727;29;20024;-67
2022/03/21 10:10:39;;;;;;;37.67;24.93;;;;;;;;;;4935257;28;20432;-68
2022/03/21 10:13:09;;;;;;;33.20;23.63;;;;;;;;;;4947912;28;20297;-69
2022/03/21 10:15:35;;;;;;;32.55;24.73;;;;;;;;;;4946733;28;20027;-68
2022/03/21 10:18:08;;;;;;;31.35;22.70;;;;;;;;;;4962225;28;20429;-69
2022/03/21 10:20:35;;;;;;;33.83;24.00;;;;;;;;;;4937838;29;20452;-69
2022/03/21 10:23:22;;;;;;;34.38;24.60;;;;;;;;;;4954113;28;20053;-65
2022/03/21 10:25:49;;;;;;;34.60;23.58;;;;;;;;;;4952812;29;20039;-68
2022/03/21 10:28:34;;;;;;;41.20;24.35;;;;;;;;;;4952407;29;20030;-64
2022/03/21 10:31:01;;;;;;;29.73;21.75;;;;;;;;;;4945248;28;20178;-73
2022/03/21 10:33:28;;;;;;;29.17;21.23;;;;;;;;;;4935394;29;20118;-73
2022/03/21 10:35:54;;;;;;;26.85;19.33;;;;;;;;;;4936662;29;20066;-71
2022/03/21 10:38:30;;;;;;;30.13;20.13;;;;;;;;;;4954812;28;20031;-72
2022/03/21 10:40:56;;;;;;;30.75;19.65;;;;;;;;;;4935198;29;20028;-72
2022/03/21 10:43:23;;;;;;;36.08;19.33;;;;;;;;;;4935033;29;20087;-72
2022/03/21 10:45:54;;;;;;;29.98;18.98;;;;;;;;;;4933812;29;20464;-73
2022/03/21 10:48:31;;;;;;;26.55;18.10;;;;;;;;;;4934909;29;20579;-74
2022/03/21 10:50:58;;;;;;;28.85;19.23;;;;;;;;;;4935088;29;20059;-73
2022/03/21 10:53:25;;;;;;;24.40;17.95;;;;;;;;;;4953252;29;20074;-71
2022/03/21 10:55:54;;;;;;;27.48;17.75;;;;;;;;;;4952919;29;20031;-73
2022/03/21 10:58:33;;;;;;;25.45;17.88;;;;;;;;;;4942006;28;20110;-73
2022/03/21 11:01:09;;;;;;;28.45;16.95;;;;;;;;;;4934872;29;20041;-74
2022/03/21 11:03:40;;;;;;;22.35;15.38;;;;;;;;;;4948680;29;20027;-73
2022/03/21 11:06:07;;;;;;;23.55;16.02;;;;;;;;;;4941481;29;20479;-73
2022/03/21 11:08:33;;;;;;;24.38;17.10;;;;;;;;;;4934890;29;20472;-73
2022/03/21 11:11:00;;;;;;;24.75;16.45;;;;;;;;;;4941912;29;20107;-68
2022/03/21 11:13:27;;;;;;;22.75;16.02;;;;;;;;;;4942927;28;20032;-73
2022/03/21 11:15:53;;;;;;;23.02;14.18;;;;;;;;;;4941382;29;20059;-74
2022/03/21 11:18:21;;;;;;;22.90;14.50;;;;;;;;;;4953460;29;20043;-74
2022/03/21 11:20:47;;;;;;;19.30;13.93;;;;;;;;;;4946019;29;20039;-68
2022/03/21 11:23:18;;;;;;;25.15;12.80;;;;;;;;;;4941925;28;20043;-69
2022/03/21 11:25:46;;;;;;;19.80;13.30;;;;;;;;;;4945275;29;20015;-69
2022/03/21 11:28:12;;;;;;;18.90;13.23;;;;;;;;;;4940832;28;20047;-68
2022/03/21 11:31:01;;;;;;;24.77;12.60;;;;;;;;;;4940687;29;20043;-68
2022/03/21 11:33:37;;;;;;;16.98;12.32;;;;;;;;;;4948334;29;20027;-69
2022/03/21 11:36:07;;;;;;;18.33;12.20;;;;;;;;;;4942708;29;20387;-68
2022/03/21 11:38:38;;;;;;;21.45;12.77;;;;;;;;;;4942208;28;20039;-67
2022/03/21 11:41:13;;;;;;;51.15;22.40;;;;;;;;;;4939519;29;20111;-69
2022/03/21 11:43:40;;;;;;;52.55;24.40;;;;;;;;;;4942698;29;20435;-69
2022/03/21 11:46:31;;;;;;;64.07;28.90;;;;;;;;;;4941126;29;20019;-65
2022/03/21 11:49:00;;;;;;;80.78;35.97;;;;;;;;;;4943209;29;20023;-67
2022/03/21 11:51:29;;;;;;;87.18;37.50;;;;;;;;;;4938865;28;20015;-69
2022/03/21 11:53:55;;;;;;;76.20;35.65;;;;;;;;;;4940830;29;20031;-66
2022/03/21 11:56:36;;;;;;;82.63;37.00;;;;;;;;;;4940373;29;20074;-68
2022/03/21 11:59:03;;;;;;;75.53;31.20;;;;;;;;;;4935637;28;20039;-68
2022/03/21 12:01:30;;;;;;;59.72;28.42;;;;;;;;;;4942283;28;20059;-68
2022/03/21 12:04:16;;;;;;;57.92;28.73;;;;;;;;;;4949133;28;20019;-67
2022/03/21 12:06:42;;;;;;;67.93;30.02;;;;;;;;;;4942987;29;20023;-69
2022/03/21 12:09:12;;;;;;;53.65;26.25;;;;;;;;;;4942974;28;20036;-65
2022/03/21 12:11:38;;;;;;;61.35;27.83;;;;;;;;;;4946295;29;20035;-68
2022/03/21 12:14:22;;;;;;;56.88;26.55;;;;;;;;;;4946676;29;20028;-68
2022/03/21 12:17:02;;;;;;;54.25;26.92;;;;;;;;;;4944247;29;20398;-66
2022/03/21 12:22:32;;;;;;;52.97;26.02;;;;;;;;;;4951654;29;20039;-67
2022/03/21 12:25:10;;;;;;;54.95;25.90;;;;;;;;;;4950444;28;20037;-68
2022/03/21 12:27:50;;;;;;;54.97;26.63;;;;;;;;;;4944351;29;20773;-66
2022/03/21 12:30:27;;;;;;;54.15;25.55;;;;;;;;;;4946230;29;20058;-67
2022/03/21 12:32:53;;;;;;;48.05;24.95;;;;;;;;;;4944147;29;20412;-70
2022/03/21 12:35:42;;;;;;;52.67;25.05;;;;;;;;;;4942709;28;20090;-66
2022/03/21 12:38:09;;;;;;;48.00;23.30;;;;;;;;;;4946486;29;20024;-69
2022/03/21 12:40:37;;;;;;;41.58;22.92;;;;;;;;;;4945361;29;20027;-68
2022/03/21 12:43:04;;;;;;;40.83;21.73;;;;;;;;;;4946111;29;20030;-69
2022/03/21 12:45:30;;;;;;;41.72;21.75;;;;;;;;;;4941014;29;20039;-68
2022/03/21 12:48:00;;;;;;;35.97;19.98;;;;;;;;;;4944684;29;20015;-67
2022/03/21 12:50:27;;;;;;;37.60;20.75;;;;;;;;;;4943115;28;20395;-68
2022/03/21 12:52:54;;;;;;;39.35;20.65;;;;;;;;;;4946435;28;20023;-66
2022/03/21 12:55:20;;;;;;;36.80;19.08;;;;;;;;;;4943596;29;20471;-68
2022/03/21 12:58:00;;;;;;;33.83;18.50;;;;;;;;;;4942362;28;20573;-67
2022/03/21 13:00:27;;;;;;;33.33;18.85;;;;;;;;;;4941734;29;20031;-72
2022/03/21 13:02:57;;;;;;;37.45;18.73;;;;;;;;;;4948282;28;20046;-69
2022/03/21 13:11:05;;;;;;;31.85;19.15;;;;;;;;;;4945063;29;20042;-67
2022/03/21 13:13:41;;;;;;;32.92;17.42;;;;;;;;;;4937871;29;20031;-70
2022/03/21 13:16:10;;;;;;;31.27;17.98;;;;;;;;;;4950064;29;20035;-71
2022/03/21 13:18:37;;;;;;;31.38;18.45;;;;;;;;;;4944714;29;20035;-70
2022/03/21 13:21:09;;;;;;;34.20;17.13;;;;;;;;;;4945571;29;20035;-71
2022/03/21 13:23:35;;;;;;;27.75;16.70;;;;;;;;;;4938626;28;20318;-71
2022/03/21 13:26:11;;;;;;;31.73;17.02;;;;;;;;;;4954468;29;20020;-70
2022/03/21 13:28:38;;;;;;;26.85;16.65;;;;;;;;;;4941458;28;20039;-71
2022/03/21 13:31:09;;;;;;;25.92;16.15;;;;;;;;;;4947174;28;20031;-71
2022/03/21 13:33:36;;;;;;;25.05;16.27;;;;;;;;;;4943851;29;20028;-72
2022/03/21 13:36:03;;;;;;;28.35;17.02;;;;;;;;;;4950283;29;20043;-68
2022/03/21 13:38:34;;;;;;;31.40;18.23;;;;;;;;;;4948352;29;20027;-69
2022/03/21 13:41:03;;;;;;;25.25;16.60;;;;;;;;;;4948590;28;20485;-72
2022/03/21 13:43:33;;;;;;;28.50;17.75;;;;;;;;;;4944680;28;20964;-71
2022/03/21 13:45:59;;;;;;;26.55;17.02;;;;;;;;;;4946253;28;20019;-71
2022/03/21 13:48:42;;;;;;;30.63;16.50;;;;;;;;;;4945812;28;20023;-71
2022/03/21 13:51:17;;;;;;;28.02;17.20;;;;;;;;;;4943864;28;20034;-69
2022/03/21 13:53:43;;;;;;;25.83;16.33;;;;;;;;;;4945935;29;20027;-70
2022/03/21 13:56:09;;;;;;;30.85;17.15;;;;;;;;;;4951175;29;20049;-69
2022/03/21 13:58:36;;;;;;;26.17;16.88;;;;;;;;;;4941663;29;20059;-70
2022/03/21 14:01:03;;;;;;;27.58;16.85;;;;;;;;;;4944553;29;20023;-70
2022/03/21 14:03:33;;;;;;;26.13;16.17;;;;;;;;;;4944757;29;20008;-70
2022/03/21 14:05:59;;;;;;;23.80;16.05;;;;;;;;;;4942538;29;20055;-69
2022/03/21 14:08:25;;;;;;;26.33;17.00;;;;;;;;;;4944894;29;20039;-70
2022/03/21 14:10:52;;;;;;;24.77;16.42;;;;;;;;;;4943385;28;20607;-71
2022/03/21 14:13:19;;;;;;;29.90;17.02;;;;;;;;;;4943061;29;20158;-71
2022/03/21 14:15:46;;;;;;;28.15;16.65;;;;;;;;;;4944092;28;20038;-70
2022/03/21 14:18:13;;;;;;;28.20;17.35;;;;;;;;;;4945393;29;20059;-67
2022/03/21 14:20:39;;;;;;;31.55;17.40;;;;;;;;;;4943994;28;20050;-67
2022/03/21 14:23:07;;;;;;;27.98;17.20;;;;;;;;;;4944147;28;20027;-67
2022/03/21 14:28:18;;;;;;;27.67;16.98;;;;;;;;;;4944411;29;20070;-68
2022/03/21 14:30:44;;;;;;;26.15;15.95;;;;;;;;;;4943691;28;20062;-68
2022/03/21 14:33:10;;;;;;;25.92;15.38;;;;;;;;;;4946279;28;20027;-69
2022/03/21 14:35:36;;;;;;;28.95;16.13;;;;;;;;;;4944128;28;20622;-71
2022/03/21 14:38:02;;;;;;;28.55;16.40;;;;;;;;;;4945552;28;20511;-71
2022/03/21 14:40:28;;;;;;;24.17;15.77;;;;;;;;;;4947333;28;20027;-72
2022/03/21 14:42:54;;;;;;;22.25;15.60;;;;;;;;;;4944140;28;20039;-69
2022/03/21 14:45:20;;;;;;;21.55;15.25;;;;;;;;;;4943960;29;20027;-69
2022/03/21 14:47:46;;;;;;;25.05;16.73;;;;;;;;;;4944450;29;20023;-72
2022/03/21 14:50:12;;;;;;;29.05;16.13;;;;;;;;;;4945652;28;20434;-72